createdAt,value
2017-08-14T00:00:10.044Z,99.99
2017-08-14T00:01:10.071Z,99.99
2017-08-14T00:02:10.090Z,99.99
2017-08-14T00:03:10.121Z,99.99
2017-08-14T00:04:10.137Z,99.99
2017-08-14T00:05:10.156Z,99.99
2017-08-14T00:06:10.183Z,99.99
2017-08-14T00:08:10.236Z,99.99
2017-08-14T00:09:10.263Z,99.99
2017-08-14T00:10:10.288Z,99.99
2017-08-14T00:11:10.303Z,99.99
2017-08-14T00:12:24.928Z,99.99
2017-08-14T00:13:10.351Z,99.99
2017-08-14T00:14:10.382Z,99.99
2017-08-14T00:15:10.391Z,99.99
2017-08-14T00:16:10.422Z,99.99
2017-08-14T00:17:10.450Z,99.99
2017-08-14T00:18:10.463Z,99.99
2017-08-14T00:19:10.489Z,99.99
2017-08-14T00:20:10.513Z,99.99
2017-08-14T00:21:10.534Z,99.99
2017-08-14T00:22:10.561Z,99.99
2017-08-14T00:23:10.588Z,99.99
2017-08-14T00:24:10.602Z,99.99
2017-08-14T00:25:10.642Z,99.99
2017-08-14T00:26:10.662Z,99.99
2017-08-14T00:27:25.282Z,99.99
2017-08-14T00:28:10.699Z,99.99
2017-08-14T00:29:10.741Z,99.99
2017-08-14T00:30:10.757Z,99.99
2017-08-14T00:31:10.771Z,99.99
2017-08-14T00:32:10.800Z,99.99
2017-08-14T00:33:10.836Z,99.99
2017-08-14T00:35:10.861Z,99.99
2017-08-14T00:36:10.899Z,99.99
2017-08-14T00:37:10.913Z,99.99
2017-08-14T00:38:10.946Z,99.99
2017-08-14T00:40:10.991Z,99.99
2017-08-14T00:41:11.013Z,99.99
2017-08-14T00:42:11.042Z,99.99
2017-08-14T00:43:11.053Z,99.99
2017-08-14T00:44:11.083Z,99.99
2017-08-14T00:45:11.113Z,99.99
2017-08-14T00:46:11.124Z,99.99
2017-08-14T00:47:10.850Z,99.99
2017-08-14T00:48:11.166Z,99.99
2017-08-14T00:49:11.205Z,99.99
2017-08-14T00:50:11.214Z,99.99
2017-08-14T00:51:11.252Z,99.99
2017-08-14T00:52:11.282Z,99.99
2017-08-14T00:53:10.993Z,99.99
2017-08-14T00:54:11.013Z,99.99
2017-08-14T00:55:11.347Z,99.99
2017-08-14T00:56:11.368Z,99.99
2017-08-14T00:57:11.400Z,99.99
2017-08-14T00:58:11.411Z,99.99
2017-08-14T00:59:26.038Z,99.99
2017-08-14T01:00:11.459Z,99.99
2017-08-14T01:01:11.476Z,99.99
2017-08-14T01:02:11.511Z,99.99
2017-08-14T01:03:11.540Z,99.99
2017-08-14T01:04:11.557Z,99.99
2017-08-14T01:05:11.577Z,99.99
2017-08-14T01:06:11.599Z,99.99
2017-08-14T01:07:11.627Z,99.99
2017-08-14T01:08:11.654Z,99.99
2017-08-14T01:09:11.668Z,99.99
2017-08-14T01:10:11.702Z,99.99
2017-08-14T01:11:11.727Z,99.99
2017-08-14T01:12:11.748Z,99.99
2017-08-14T01:13:11.772Z,99.99
2017-08-14T01:14:11.793Z,99.99
2017-08-14T01:15:26.413Z,99.99
2017-08-14T01:16:11.845Z,99.99
2017-08-14T01:17:11.862Z,99.99
2017-08-14T01:18:11.885Z,99.99
2017-08-14T01:20:11.930Z,99.99
2017-08-14T01:21:11.961Z,99.99
2017-08-14T01:22:11.987Z,99.99
2017-08-14T01:23:12.005Z,99.99
2017-08-14T01:24:12.070Z,99.99
2017-08-14T01:25:12.042Z,99.99
2017-08-14T01:27:11.790Z,99.99
2017-08-14T01:28:12.125Z,99.99
2017-08-14T01:29:12.138Z,99.99
2017-08-14T01:30:12.168Z,99.99
2017-08-14T01:31:26.788Z,99.99
2017-08-14T01:32:12.216Z,99.99
2017-08-14T01:33:12.245Z,99.99
2017-08-14T01:34:11.952Z,99.99
2017-08-14T01:35:12.297Z,99.99
2017-08-14T01:37:12.342Z,99.99
2017-08-14T01:40:12.409Z,99.99
2017-08-14T01:42:12.457Z,99.99
2017-08-14T01:43:12.466Z,99.99
2017-08-14T01:44:12.499Z,99.99
2017-08-14T01:45:12.209Z,99.99
2017-08-14T01:46:12.545Z,99.99
2017-08-14T01:47:27.167Z,99.99
2017-08-14T01:48:12.600Z,99.99
2017-08-14T01:49:12.617Z,99.99
2017-08-14T01:51:12.665Z,99.99
2017-08-14T01:52:12.693Z,99.99
2017-08-14T01:53:12.710Z,99.99
2017-08-14T01:54:12.733Z,99.99
2017-08-14T01:55:12.757Z,99.99
2017-08-14T01:56:12.770Z,99.99
2017-08-14T01:57:12.805Z,99.99
2017-08-14T01:58:12.823Z,99.99
2017-08-14T01:59:12.858Z,99.99
2017-08-14T02:00:12.557Z,99.99
2017-08-14T02:01:12.887Z,99.99
2017-08-14T02:02:27.521Z,99.99
2017-08-14T02:03:12.947Z,99.99
2017-08-14T02:04:12.961Z,99.99
2017-08-14T02:05:12.989Z,99.99
2017-08-14T02:06:13.008Z,99.99
2017-08-14T02:07:13.037Z,99.99
2017-08-14T02:08:13.057Z,99.99
2017-08-14T02:09:13.093Z,99.99
2017-08-14T02:10:13.115Z,99.99
2017-08-14T02:11:13.123Z,99.99
2017-08-14T02:13:13.181Z,99.99
2017-08-14T02:14:13.190Z,99.99
2017-08-14T02:15:13.226Z,99.99
2017-08-14T02:16:13.248Z,99.99
2017-08-14T02:17:13.525Z,99.99
2017-08-14T02:18:12.978Z,99.99
2017-08-14T02:19:13.325Z,99.99
2017-08-14T02:20:13.348Z,99.99
2017-08-14T02:21:13.365Z,99.99
2017-08-14T02:22:13.386Z,99.99
2017-08-14T02:23:13.408Z,99.99
2017-08-14T02:24:13.439Z,99.99
2017-08-14T02:25:13.446Z,99.99
2017-08-14T02:26:13.489Z,99.99
2017-08-14T02:27:13.510Z,99.99
2017-08-14T02:29:13.542Z,99.99
2017-08-14T02:30:13.569Z,99.99
2017-08-14T02:31:13.598Z,99.99
2017-08-14T02:32:13.611Z,99.99
2017-08-14T02:33:13.645Z,99.99
2017-08-14T02:34:28.266Z,99.99
2017-08-14T02:35:13.689Z,99.99
2017-08-14T02:36:13.714Z,99.99
2017-08-14T02:37:13.731Z,99.99
2017-08-14T02:38:13.758Z,99.99
2017-08-14T02:39:13.478Z,99.99
2017-08-14T02:40:13.802Z,99.99
2017-08-14T02:41:13.524Z,99.99
2017-08-14T02:42:13.854Z,99.99
2017-08-14T02:43:13.887Z,99.99
2017-08-14T02:44:13.902Z,99.99
2017-08-14T02:46:13.946Z,99.99
2017-08-14T02:47:13.964Z,99.99
2017-08-14T02:48:13.986Z,99.99
2017-08-14T02:49:14.024Z,99.99
2017-08-14T02:50:28.640Z,99.99
2017-08-14T02:51:13.753Z,99.99
2017-08-14T02:52:14.110Z,99.99
2017-08-14T02:53:14.110Z,99.99
2017-08-14T02:54:14.134Z,99.99
2017-08-14T02:56:13.875Z,99.99
2017-08-14T02:58:13.909Z,99.99
2017-08-14T02:59:14.247Z,99.99
2017-08-14T03:01:14.306Z,99.99
2017-08-14T03:02:14.337Z,99.99
2017-08-14T03:03:14.350Z,99.99
2017-08-14T03:04:14.373Z,99.99
2017-08-14T03:05:14.393Z,99.99
2017-08-14T03:06:29.013Z,99.99
2017-08-14T03:08:14.472Z,99.99
2017-08-14T03:09:14.489Z,99.99
2017-08-14T03:10:14.494Z,99.99
2017-08-14T03:11:14.530Z,99.99
2017-08-14T03:12:14.562Z,99.99
2017-08-14T03:13:14.584Z,99.99
2017-08-14T03:14:14.601Z,99.99
2017-08-14T03:15:14.633Z,99.99
2017-08-14T03:16:14.655Z,99.99
2017-08-14T03:17:14.667Z,99.99
2017-08-14T03:18:14.691Z,99.99
2017-08-14T03:19:14.725Z,99.99
2017-08-14T03:20:14.743Z,99.99
2017-08-14T03:21:14.770Z,99.99
2017-08-14T03:22:29.384Z,99.99
2017-08-14T03:23:14.818Z,99.99
2017-08-14T03:24:14.820Z,99.99
2017-08-14T03:25:14.850Z,99.99
2017-08-14T03:26:14.891Z,99.99
2017-08-14T03:27:14.907Z,99.99
2017-08-14T03:28:14.928Z,99.99
2017-08-14T03:29:14.944Z,99.99
2017-08-14T03:30:14.981Z,99.99
2017-08-14T03:31:14.684Z,99.99
2017-08-14T03:32:15.015Z,99.99
2017-08-14T03:33:15.041Z,99.99
2017-08-14T03:34:14.769Z,99.99
2017-08-14T03:35:15.089Z,99.99
2017-08-14T03:36:15.119Z,99.99
2017-08-14T03:37:29.738Z,99.99
2017-08-14T03:39:15.193Z,99.99
2017-08-14T03:40:15.210Z,99.99
2017-08-14T03:41:15.241Z,99.99
2017-08-14T03:42:15.257Z,99.99
2017-08-14T03:43:15.273Z,99.99
2017-08-14T03:44:15.309Z,99.99
2017-08-14T03:45:15.333Z,99.99
2017-08-14T03:46:15.400Z,99.99
2017-08-14T03:47:15.366Z,99.99
2017-08-14T03:48:15.086Z,99.99
2017-08-14T03:49:15.431Z,99.99
2017-08-14T03:50:15.458Z,99.99
2017-08-14T03:51:15.467Z,99.99
2017-08-14T03:52:15.512Z,99.99
2017-08-14T03:53:15.515Z,99.99
2017-08-14T03:54:15.527Z,99.99
2017-08-14T03:55:15.566Z,99.99
2017-08-14T03:56:15.582Z,99.99
2017-08-14T03:57:15.609Z,99.99
2017-08-14T03:58:15.635Z,99.99
2017-08-14T03:59:15.642Z,99.99
2017-08-14T04:00:15.677Z,99.99
2017-08-14T04:01:15.695Z,99.99
2017-08-14T04:02:15.722Z,99.99
2017-08-14T04:04:15.770Z,99.99
2017-08-14T04:05:15.786Z,99.99
2017-08-14T04:06:15.821Z,99.99
2017-08-14T04:07:15.522Z,99.99
2017-08-14T04:09:30.484Z,99.99
2017-08-14T04:10:15.911Z,99.99
2017-08-14T04:11:15.940Z,99.99
2017-08-14T04:12:15.943Z,99.99
2017-08-14T04:13:15.988Z,99.99
2017-08-14T04:14:15.999Z,99.99
2017-08-14T04:15:15.716Z,99.99
2017-08-14T04:16:16.042Z,99.99
2017-08-14T04:17:16.077Z,99.99
2017-08-14T04:18:16.088Z,99.99
2017-08-14T04:19:16.130Z,99.99
2017-08-14T04:20:16.152Z,99.99
2017-08-14T04:21:16.168Z,99.99
2017-08-14T04:22:16.181Z,99.99
2017-08-14T04:23:16.213Z,99.99
2017-08-14T04:24:16.237Z,99.99
2017-08-14T04:25:30.858Z,99.99
2017-08-14T04:26:16.285Z,99.99
2017-08-14T04:27:16.309Z,99.99
2017-08-14T04:28:16.336Z,99.99
2017-08-14T04:29:16.348Z,99.99
2017-08-14T04:30:16.377Z,99.99
2017-08-14T04:31:16.425Z,99.99
2017-08-14T04:32:16.412Z,99.99
2017-08-14T04:33:16.442Z,99.99
2017-08-14T04:34:16.468Z,99.99
2017-08-14T04:35:16.525Z,99.99
2017-08-14T04:36:16.525Z,99.99
2017-08-14T04:37:16.543Z,99.99
2017-08-14T04:38:16.569Z,99.99
2017-08-14T04:39:16.578Z,99.99
2017-08-14T04:40:16.615Z,99.99
2017-08-14T04:41:31.239Z,99.99
2017-08-14T04:42:16.659Z,99.99
2017-08-14T04:44:16.696Z,99.99
2017-08-14T04:45:16.730Z,99.99
2017-08-14T04:46:16.744Z,99.99
2017-08-14T04:47:16.777Z,99.99
2017-08-14T04:48:16.495Z,99.99
2017-08-14T04:49:16.817Z,99.99
2017-08-14T04:50:16.862Z,99.99
2017-08-14T04:51:16.557Z,99.91
2017-08-14T04:53:16.605Z,99.48
2017-08-14T04:54:16.944Z,99.58
2017-08-14T04:55:16.971Z,98.81
2017-08-14T04:57:31.611Z,96.27
2017-08-14T04:59:17.068Z,96.08
2017-08-14T05:00:17.093Z,95.6
2017-08-14T05:01:17.111Z,94.64
2017-08-14T05:02:17.129Z,92.77
2017-08-14T05:03:17.162Z,90.32
2017-08-14T05:04:17.184Z,87.96
2017-08-14T05:05:17.208Z,86.85
2017-08-14T05:06:17.224Z,84.73
2017-08-14T05:07:17.257Z,83.23
2017-08-14T05:08:17.283Z,82.17
2017-08-14T05:09:17.320Z,82.08
2017-08-14T05:10:17.334Z,81.6
2017-08-14T05:11:17.362Z,80.73
2017-08-14T05:12:31.989Z,79.9
2017-08-14T05:13:17.416Z,78.75
2017-08-14T05:14:17.445Z,77.44
2017-08-14T05:15:17.468Z,77.06
2017-08-14T05:16:17.499Z,77.06
2017-08-14T05:17:17.207Z,77.06
2017-08-14T05:18:17.550Z,75.36
2017-08-14T05:19:17.566Z,74.78
2017-08-14T05:20:17.606Z,74.97
2017-08-14T05:21:17.639Z,74.14
2017-08-14T05:24:17.710Z,70
2017-08-14T05:25:17.740Z,69.26
2017-08-14T05:26:17.772Z,67.4
2017-08-14T05:27:17.800Z,65.3
2017-08-14T05:29:17.862Z,62.27
2017-08-14T05:30:17.898Z,61.3
2017-08-14T05:31:17.924Z,60.58
2017-08-14T05:32:17.949Z,60.1
2017-08-14T05:33:17.984Z,58.74
2017-08-14T05:34:18.006Z,59.33
2017-08-14T05:35:18.047Z,58.16
2017-08-14T05:36:18.070Z,57.12
2017-08-14T05:37:18.112Z,57.06
2017-08-14T05:38:18.136Z,56.28
2017-08-14T05:39:18.171Z,57.37
2017-08-14T05:40:18.202Z,55.73
2017-08-14T05:41:18.243Z,55.53
2017-08-14T05:42:18.266Z,55.17
2017-08-14T05:43:18.286Z,54.78
2017-08-14T05:44:32.927Z,53.83
2017-08-14T05:45:18.367Z,54.29
2017-08-14T05:46:18.389Z,53.71
2017-08-14T05:47:18.435Z,52.86
2017-08-14T05:48:18.459Z,53.03
2017-08-14T05:49:18.503Z,53.03
2017-08-14T05:50:18.520Z,52.28
2017-08-14T05:52:18.593Z,52.47
2017-08-14T05:53:18.627Z,51.31
2017-08-14T05:54:18.653Z,50.75
2017-08-14T05:55:18.695Z,50.97
2017-08-14T05:56:18.722Z,50.58
2017-08-14T05:57:18.762Z,50.31
2017-08-14T05:58:18.794Z,50.16
2017-08-14T05:59:18.827Z,51.01
2017-08-14T06:00:33.465Z,49.8
2017-08-14T06:01:18.886Z,49.22
2017-08-14T06:02:18.932Z,49.41
2017-08-14T06:03:18.972Z,48.54
2017-08-14T06:04:19.003Z,48.95
2017-08-14T06:05:19.033Z,48.56
2017-08-14T06:06:19.071Z,49.68
2017-08-14T06:07:19.107Z,48.83
2017-08-14T06:08:19.149Z,48.17
2017-08-14T06:09:19.174Z,48.39
2017-08-14T06:10:19.258Z,48.85
2017-08-14T06:11:19.251Z,48.75
2017-08-14T06:12:19.284Z,47
2017-08-14T06:13:19.312Z,47.52
2017-08-14T06:14:19.350Z,47.13
2017-08-14T06:15:19.385Z,45.29
2017-08-14T06:16:34.018Z,47.44
2017-08-14T06:17:19.459Z,47.88
2017-08-14T06:18:19.480Z,49
2017-08-14T06:19:19.526Z,48.44
2017-08-14T06:20:19.562Z,48.07
2017-08-14T06:21:19.604Z,47.61
2017-08-14T06:22:19.630Z,46.71
2017-08-14T06:23:19.672Z,46.34
2017-08-14T06:24:19.703Z,47.39
2017-08-14T06:25:19.741Z,45.88
2017-08-14T06:26:19.778Z,45.78
2017-08-14T06:27:19.814Z,47.05
2017-08-14T06:28:19.850Z,45.68
2017-08-14T06:29:19.883Z,44.73
2017-08-14T06:30:19.920Z,45.29
2017-08-14T06:31:19.690Z,47.2
2017-08-14T06:32:34.590Z,47.3
2017-08-14T06:33:20.030Z,46.95
2017-08-14T06:34:20.067Z,45.57
2017-08-14T06:35:20.108Z,45.78
2017-08-14T06:37:20.176Z,46.83
2017-08-14T06:38:20.201Z,46.37
2017-08-14T06:39:20.240Z,45.68
2017-08-14T06:40:20.289Z,45.68
2017-08-14T06:41:20.332Z,45.51
2017-08-14T06:42:20.362Z,45.51
2017-08-14T06:43:20.387Z,44.95
2017-08-14T06:44:20.431Z,43.78
2017-08-14T06:45:20.467Z,43.98
2017-08-14T06:46:20.503Z,43.37
2017-08-14T06:47:35.144Z,42.54
2017-08-14T06:48:20.572Z,44.19
2017-08-14T06:49:20.617Z,44.27
2017-08-14T06:50:20.656Z,44.15
2017-08-14T06:51:20.694Z,43.88
2017-08-14T06:52:20.724Z,43.88
2017-08-14T06:53:20.761Z,43.57
2017-08-14T06:54:20.803Z,43.88
2017-08-14T06:55:20.829Z,44.17
2017-08-14T06:56:20.878Z,43.98
2017-08-14T06:57:20.900Z,43.8
2017-08-14T06:58:20.946Z,43.41
2017-08-14T06:59:20.987Z,43.39
2017-08-14T07:00:21.024Z,43.12
2017-08-14T07:01:21.057Z,43.73
2017-08-14T07:02:21.098Z,45.09
2017-08-14T07:04:21.172Z,43.26
2017-08-14T07:05:21.217Z,42.48
2017-08-14T07:06:21.277Z,41.6
2017-08-14T07:07:21.285Z,42.3
2017-08-14T07:08:21.318Z,41.82
2017-08-14T07:09:21.357Z,41.52
2017-08-14T07:10:21.394Z,42.69
2017-08-14T07:11:21.125Z,42.89
2017-08-14T07:12:21.464Z,41.05
2017-08-14T07:13:21.542Z,41.44
2017-08-14T07:15:21.584Z,42.01
2017-08-14T07:16:21.612Z,41.5
2017-08-14T07:17:21.659Z,41.33
2017-08-14T07:19:36.353Z,40.92
2017-08-14T07:20:21.774Z,41.13
2017-08-14T07:21:21.811Z,40.94
2017-08-14T07:22:21.853Z,41.11
2017-08-14T07:23:21.876Z,43.14
2017-08-14T07:24:21.927Z,42.29
2017-08-14T07:25:21.962Z,41.42
2017-08-14T07:26:21.992Z,42.42
2017-08-14T07:27:22.034Z,42.03
2017-08-14T07:28:22.058Z,39.78
2017-08-14T07:29:22.098Z,40.66
2017-08-14T07:30:22.155Z,39
2017-08-14T07:31:22.179Z,38.45
2017-08-14T07:32:21.916Z,41.17
2017-08-14T07:33:22.256Z,38.02
2017-08-14T07:34:22.306Z,38.42
2017-08-14T07:35:36.932Z,40.17
2017-08-14T07:36:22.066Z,38.61
2017-08-14T07:37:22.409Z,40.08
2017-08-14T07:38:22.452Z,39.39
2017-08-14T07:39:22.492Z,38.32
2017-08-14T07:40:22.217Z,39.59
2017-08-14T07:41:22.559Z,40.72
2017-08-14T07:42:22.598Z,39.36
2017-08-14T07:43:22.639Z,41.41
2017-08-14T07:44:22.678Z,39.78
2017-08-14T07:46:22.742Z,39.78
2017-08-14T07:47:22.794Z,39.78
2017-08-14T07:48:22.819Z,38.79
2017-08-14T07:49:22.873Z,39.45
2017-08-14T07:50:22.903Z,38.77
2017-08-14T07:51:37.533Z,41.21
2017-08-14T07:52:22.979Z,40.06
2017-08-14T07:53:23.003Z,38.32
2017-08-14T07:54:23.053Z,40.58
2017-08-14T07:55:23.090Z,37.67
2017-08-14T07:56:22.817Z,37.77
2017-08-14T07:57:23.166Z,37.67
2017-08-14T07:58:23.193Z,36.94
2017-08-14T07:59:23.244Z,38.32
2017-08-14T08:00:23.261Z,38.3
2017-08-14T08:01:23.000Z,40.25
2017-08-14T08:02:23.052Z,37.73
2017-08-14T08:03:23.080Z,37.24
2017-08-14T08:04:23.116Z,38.01
2017-08-14T08:05:23.149Z,38.18
2017-08-14T08:06:23.187Z,38.96
2017-08-14T08:07:38.134Z,38.94
2017-08-14T08:08:23.571Z,39.43
2017-08-14T08:09:23.616Z,38.65
2017-08-14T08:10:23.642Z,39.43
2017-08-14T08:11:23.683Z,41.01
2017-08-14T08:12:23.719Z,40.99
2017-08-14T08:14:23.800Z,43.04
2017-08-14T08:15:23.830Z,41.77
2017-08-14T08:16:23.891Z,42.2
2017-08-14T08:17:23.891Z,41.83
2017-08-14T08:18:23.930Z,41.05
2017-08-14T08:19:23.970Z,41.66
2017-08-14T08:20:24.015Z,40.7
2017-08-14T08:21:24.101Z,38.4
2017-08-14T08:22:38.685Z,39.22
2017-08-14T08:23:24.148Z,39.2
2017-08-14T08:24:24.150Z,36.98
2017-08-14T08:25:24.207Z,40.41
2017-08-14T08:26:23.917Z,37.88
2017-08-14T08:27:23.968Z,37.12
2017-08-14T08:28:24.004Z,37.1
2017-08-14T08:29:24.332Z,37.85
2017-08-14T08:30:24.370Z,37.24
2017-08-14T08:31:24.408Z,38.02
2017-08-14T08:32:24.452Z,38.32
2017-08-14T08:33:24.483Z,38.69
2017-08-14T08:34:24.517Z,39.65
2017-08-14T08:35:24.560Z,39.14
2017-08-14T08:36:24.595Z,39.7
2017-08-14T08:37:24.634Z,42.3
2017-08-14T08:38:24.364Z,41.11
2017-08-14T08:39:24.404Z,41.89
2017-08-14T08:40:24.741Z,42.22
2017-08-14T08:41:24.469Z,42.84
2017-08-14T08:42:24.531Z,43.13
2017-08-14T08:43:24.543Z,42.08
2017-08-14T08:44:24.887Z,42.79
2017-08-14T08:46:24.958Z,40.7
2017-08-14T08:47:24.989Z,41.77
2017-08-14T08:48:25.039Z,41.8
2017-08-14T08:49:25.067Z,40.74
2017-08-14T08:50:25.105Z,40.08
2017-08-14T08:51:25.131Z,38.63
2017-08-14T08:52:25.175Z,38.26
2017-08-14T08:53:25.202Z,39.72
2017-08-14T08:54:39.845Z,38.16
2017-08-14T08:55:25.287Z,38.94
2017-08-14T08:56:25.315Z,37.57
2017-08-14T08:57:25.353Z,38.18
2017-08-14T08:58:25.390Z,38.16
2017-08-14T08:59:25.434Z,37.57
2017-08-14T09:00:25.462Z,39.72
2017-08-14T09:01:25.497Z,38.75
2017-08-14T09:02:25.535Z,38.4
2017-08-14T09:03:25.254Z,40.97
2017-08-14T09:04:25.597Z,41.15
2017-08-14T09:05:25.640Z,41.44
2017-08-14T09:06:25.681Z,41.63
2017-08-14T09:07:25.718Z,42.59
2017-08-14T09:08:25.753Z,42.96
2017-08-14T09:09:25.796Z,43.71
2017-08-14T09:10:40.416Z,42.74
2017-08-14T09:11:25.851Z,43.25
2017-08-14T09:12:25.880Z,43.93
2017-08-14T09:14:25.954Z,44.01
2017-08-14T09:15:25.684Z,43.35
2017-08-14T09:16:26.028Z,44.05
2017-08-14T09:17:25.757Z,41.71
2017-08-14T09:18:25.790Z,41.81
2017-08-14T09:19:25.825Z,40.93
2017-08-14T09:20:25.849Z,41.73
2017-08-14T09:21:25.882Z,43.66
2017-08-14T09:22:25.925Z,42.66
2017-08-14T09:23:26.272Z,43.71
2017-08-14T09:24:26.312Z,44.55
2017-08-14T09:25:26.025Z,43.7
2017-08-14T09:26:40.974Z,40.91
2017-08-14T09:27:26.409Z,41.63
2017-08-14T09:28:26.436Z,42.71
2017-08-14T09:29:26.490Z,40.09
2017-08-14T09:30:26.508Z,40.7
2017-08-14T09:31:26.536Z,38.57
2017-08-14T09:32:26.586Z,40.43
2017-08-14T09:33:26.614Z,39.76
2017-08-14T09:34:26.676Z,39.62
2017-08-14T09:35:26.680Z,40.19
2017-08-14T09:36:26.716Z,40.64
2017-08-14T09:37:26.743Z,43.37
2017-08-14T09:38:26.782Z,43.41
2017-08-14T09:39:26.815Z,42.83
2017-08-14T09:40:26.856Z,42.29
2017-08-14T09:41:26.887Z,40.94
2017-08-14T09:42:41.517Z,39.69
2017-08-14T09:43:26.951Z,40.21
2017-08-14T09:44:26.989Z,39.92
2017-08-14T09:45:27.023Z,38.29
2017-08-14T09:46:27.058Z,39.19
2017-08-14T09:47:27.088Z,37.63
2017-08-14T09:48:27.124Z,38.7
2017-08-14T09:49:27.151Z,36.45
2017-08-14T09:50:27.187Z,38.16
2017-08-14T09:51:27.214Z,38.63
2017-08-14T09:52:27.262Z,38.67
2017-08-14T09:53:27.297Z,40.21
2017-08-14T09:54:27.333Z,42.51
2017-08-14T09:55:27.369Z,41.35
2017-08-14T09:57:42.029Z,40.01
2017-08-14T09:59:27.496Z,42.03
2017-08-14T10:00:27.532Z,38.43
2017-08-14T10:01:27.566Z,38.26
2017-08-14T10:02:27.606Z,38.76
2017-08-14T10:03:27.622Z,37.61
2017-08-14T10:04:27.667Z,40.55
2017-08-14T10:05:27.705Z,38.29
2017-08-14T10:06:27.731Z,35.45
2017-08-14T10:07:27.769Z,37.9
2017-08-14T10:08:27.798Z,38.68
2017-08-14T10:09:27.824Z,37.51
2017-08-14T10:10:27.859Z,38.29
2017-08-14T10:11:27.901Z,36.77
2017-08-14T10:12:27.936Z,38.22
2017-08-14T10:13:27.962Z,39
2017-08-14T10:14:27.994Z,37.73
2017-08-14T10:15:28.028Z,37.34
2017-08-14T10:16:28.072Z,38.49
2017-08-14T10:17:28.093Z,38.67
2017-08-14T10:18:28.135Z,38.61
2017-08-14T10:19:27.860Z,39.78
2017-08-14T10:21:28.223Z,38.24
2017-08-14T10:22:28.277Z,38.73
2017-08-14T10:23:28.307Z,37.35
2017-08-14T10:24:28.332Z,38.53
2017-08-14T10:25:28.361Z,38.12
2017-08-14T10:26:28.402Z,39.76
2017-08-14T10:27:28.124Z,38.79
2017-08-14T10:28:28.479Z,38.77
2017-08-14T10:29:43.106Z,39.47
2017-08-14T10:30:28.537Z,41.28
2017-08-14T10:31:28.266Z,40.8
2017-08-14T10:32:28.601Z,40.8
2017-08-14T10:33:28.332Z,40.48
2017-08-14T10:34:28.683Z,42.83
2017-08-14T10:35:28.714Z,41.56
2017-08-14T10:36:28.733Z,42.22
2017-08-14T10:37:28.778Z,42.61
2017-08-14T10:38:28.796Z,41.22
2017-08-14T10:39:28.839Z,43.05
2017-08-14T10:40:28.928Z,43.05
2017-08-14T10:41:28.899Z,44.69
2017-08-14T10:42:28.948Z,47.39
2017-08-14T10:43:28.974Z,43.04
2017-08-14T10:44:29.004Z,43.21
2017-08-14T10:45:43.637Z,42.91
2017-08-14T10:48:29.124Z,44.55
2017-08-14T10:49:29.171Z,46.47
2017-08-14T10:50:28.890Z,46.3
2017-08-14T10:51:29.238Z,43.58
2017-08-14T10:52:29.271Z,45.67
2017-08-14T10:53:29.304Z,46.33
2017-08-14T10:54:29.017Z,47.28
2017-08-14T10:55:29.051Z,48.03
2017-08-14T10:56:29.081Z,48.22
2017-08-14T10:57:29.121Z,47.83
2017-08-14T10:58:29.442Z,50.26
2017-08-14T10:59:29.184Z,48.93
2017-08-14T11:00:29.531Z,50.87
2017-08-14T11:01:44.153Z,47.52
2017-08-14T11:02:29.587Z,46.47
2017-08-14T11:03:29.301Z,49.39
2017-08-14T11:04:29.660Z,51.23
2017-08-14T11:05:29.679Z,47.66
2017-08-14T11:06:29.711Z,49.15
2017-08-14T11:07:29.743Z,47.69
2017-08-14T11:08:29.781Z,48.27
2017-08-14T11:09:29.798Z,48.49
2017-08-14T11:10:29.825Z,46.83
2017-08-14T11:11:29.871Z,44.49
2017-08-14T11:12:29.887Z,43.23
2017-08-14T11:13:29.938Z,43.79
2017-08-14T11:14:29.965Z,45.04
2017-08-14T11:15:29.991Z,44.62
2017-08-14T11:16:30.017Z,46.35
2017-08-14T11:17:44.658Z,46.62
2017-08-14T11:18:30.091Z,46.14
2017-08-14T11:19:30.118Z,46.52
2017-08-14T11:20:30.144Z,47.11
2017-08-14T11:21:30.185Z,48.3
2017-08-14T11:22:29.894Z,49.58
2017-08-14T11:23:29.935Z,48.83
2017-08-14T11:24:30.274Z,47.47
2017-08-14T11:25:29.993Z,47.1
2017-08-14T11:27:30.056Z,44.38
2017-08-14T11:28:30.387Z,43.67
2017-08-14T11:29:30.433Z,44.7
2017-08-14T11:30:30.460Z,45.65
2017-08-14T11:31:30.474Z,46.5
2017-08-14T11:32:45.120Z,47.18
2017-08-14T11:33:30.546Z,47.01
2017-08-14T11:34:30.589Z,47.57
2017-08-14T11:35:30.613Z,47.38
2017-08-14T11:36:30.332Z,49.12
2017-08-14T11:37:30.367Z,47.59
2017-08-14T11:38:30.389Z,47.52
2017-08-14T11:39:30.730Z,47.61
2017-08-14T11:40:30.758Z,47.32
2017-08-14T11:41:30.847Z,45.48
2017-08-14T11:42:30.822Z,47.52
2017-08-14T11:43:30.851Z,47.44
2017-08-14T11:44:30.886Z,46.57
2017-08-14T11:45:30.904Z,46.18
2017-08-14T11:46:30.951Z,46.94
2017-08-14T11:47:30.976Z,47.61
2017-08-14T11:48:31.001Z,47.03
2017-08-14T11:49:31.035Z,48.85
2017-08-14T11:50:31.055Z,49.15
2017-08-14T11:51:31.102Z,49.92
2017-08-14T11:52:31.125Z,48.37
2017-08-14T11:53:31.155Z,48.18
2017-08-14T11:54:30.877Z,47.4
2017-08-14T11:55:30.900Z,46.74
2017-08-14T11:56:30.925Z,49.27
2017-08-14T11:58:31.326Z,48.2
2017-08-14T11:59:31.024Z,46.84
2017-08-14T12:00:31.370Z,47.98
2017-08-14T12:01:31.396Z,47.61
2017-08-14T12:02:31.111Z,47.91
2017-08-14T12:03:31.147Z,49.54
2017-08-14T12:04:46.080Z,49.07
2017-08-14T12:05:31.208Z,48.68
2017-08-14T12:06:31.543Z,47.61
2017-08-14T12:07:31.573Z,47.4
2017-08-14T12:08:31.606Z,47.28
2017-08-14T12:09:31.319Z,47.96
2017-08-14T12:10:31.664Z,46.89
2017-08-14T12:12:31.736Z,49.02
2017-08-14T12:13:31.443Z,47.76
2017-08-14T12:14:31.774Z,47.38
2017-08-14T12:15:31.492Z,48.35
2017-08-14T12:16:31.532Z,48.83
2017-08-14T12:17:31.555Z,49.12
2017-08-14T12:18:31.590Z,47.49
2017-08-14T12:19:31.924Z,47.98
2017-08-14T12:20:46.557Z,50.02
2017-08-14T12:21:31.676Z,49.24
2017-08-14T12:22:32.025Z,47.88
2017-08-14T12:23:31.738Z,48.54
2017-08-14T12:24:32.080Z,47.38
2017-08-14T12:25:31.799Z,48.35
2017-08-14T12:26:32.129Z,50.31
2017-08-14T12:27:31.853Z,47.98
2017-08-14T12:28:32.196Z,49.15
2017-08-14T12:29:32.230Z,49.34
2017-08-14T12:30:32.505Z,49.15
2017-08-14T12:31:32.294Z,48.27
2017-08-14T12:32:32.304Z,48.75
2017-08-14T12:34:32.376Z,47.3
2017-08-14T12:35:32.391Z,47.98
2017-08-14T12:36:47.030Z,50.6
2017-08-14T12:37:32.450Z,49.24
2017-08-14T12:38:32.490Z,49.82
2017-08-14T12:39:32.513Z,48.08
2017-08-14T12:40:32.546Z,48.18
2017-08-14T12:41:32.264Z,48.37
2017-08-14T12:43:32.628Z,48.08
2017-08-14T12:44:32.666Z,48.85
2017-08-14T12:45:32.692Z,48.44
2017-08-14T12:46:32.723Z,49.41
2017-08-14T12:47:32.749Z,48.93
2017-08-14T12:48:32.789Z,48.15
2017-08-14T12:49:32.814Z,47.96
2017-08-14T12:50:32.843Z,47.59
2017-08-14T12:51:32.867Z,47.69
2017-08-14T12:52:47.500Z,47.57
2017-08-14T12:53:32.923Z,48.18
2017-08-14T12:54:33.007Z,48.08
2017-08-14T12:55:33.017Z,50.6
2017-08-14T12:56:33.023Z,48.85
2017-08-14T12:57:33.045Z,47.71
2017-08-14T12:59:33.117Z,47.3
2017-08-14T13:00:33.141Z,48.35
2017-08-14T13:02:33.186Z,48.05
2017-08-14T13:03:33.220Z,47.57
2017-08-14T13:04:33.251Z,49.05
2017-08-14T13:05:33.293Z,47.78
2017-08-14T13:06:33.311Z,47.28
2017-08-14T13:07:47.943Z,46.91
2017-08-14T13:08:33.373Z,47.2
2017-08-14T13:09:33.410Z,48.18
2017-08-14T13:10:33.428Z,47.23
2017-08-14T13:11:33.461Z,45.48
2017-08-14T13:12:33.489Z,45.28
2017-08-14T13:13:33.522Z,47.61
2017-08-14T13:14:33.537Z,48.18
2017-08-14T13:15:33.585Z,48.37
2017-08-14T13:16:33.611Z,49.24
2017-08-14T13:18:33.665Z,49.12
2017-08-14T13:19:33.387Z,49.22
2017-08-14T13:20:33.421Z,48.93
2017-08-14T13:21:33.751Z,49.32
2017-08-14T13:22:33.783Z,48.93
2017-08-14T13:23:33.809Z,48.35
2017-08-14T13:24:33.850Z,48.95
2017-08-14T13:25:33.867Z,48.95
2017-08-14T13:26:33.903Z,48.47
2017-08-14T13:27:33.923Z,48.08
2017-08-14T13:28:33.950Z,48.93
2017-08-14T13:29:33.996Z,49.02
2017-08-14T13:30:33.709Z,48.64
2017-08-14T13:31:34.046Z,49.12
2017-08-14T13:32:34.070Z,49.51
2017-08-14T13:33:34.112Z,49.99
2017-08-14T13:34:34.137Z,49.99
2017-08-14T13:35:34.162Z,51.04
2017-08-14T13:37:33.914Z,52.3
2017-08-14T13:38:34.237Z,52.3
2017-08-14T13:39:48.879Z,50.58
2017-08-14T13:40:34.305Z,49.71
2017-08-14T13:41:34.340Z,49.99
2017-08-14T13:42:34.361Z,49.02
2017-08-14T13:43:34.398Z,48.44
2017-08-14T13:44:34.436Z,50.48